Rechercher aéroport 
image banner adimage banner adimage banner ad
image banner ad

L70 - Agua Dulce

Situé à Agua Dulce, United States

ICAO - L70, IATA -

Données fournies par Airmate  

Information générale

Coordonnées: N34°30'13" W118°18'47"
Élévation : 2633 feet MSL.
Variation magnétique : 14° East
Voir autres Aéroports à California

Données opérationnelles

Special qualification required
Heure actuelle UTC:
Heure actuelle locale:
Météo à : KPMD - Palmdale Usaf Plant 42 ( 25 km )
METAR: KPMD 300153Z AUTO 25018G23KT 10SM CLR 34/03 A2991 RMK AO2 PK WND 21028/0059 SLP094 T03390028
TAF: KPMD 292352Z 3000/3024 23015G23KT P6SM SKC FM300300 23012KT P6SM SKC FM300800 21007KT P6SM SKC FM301400 VRB03KT P6SM SKC FM302200 23015KT P6SM SKC FM302300 23017G23KT P6SM SKC
Voir NOTAMs / SUP AIP / TFR affectant cet aéroport [VIEW]
Fréquences de communication: [VIEW]

Pistes:

Identifiant RWYQFULongueur (ft)Largeur (ft)SurfaceLDA (ft)
04420550ASPH
22420550ASPH

Coordonnées de l'aéroport

Adresse: Agua Dulce United States

Vue satellite de L70